Time;durP1;ratioP1;P1;durP2;ratioP2;P2;SDS_P1;SDS_P2;PMS_P1;PMS_P2;Temp;Humidity;BMP_temperature;BMP_pressure;BME280_temperature;BME280_humidity;BME280_pressure;Samples;Min_cycle;Max_cycle;Signal;HPM_P1;HPM_P2
2022/12/03 00:02:06;;;;;;;11.60;6.40;;;2.70;99.90;;;;;;5017955;28;20194;-94
2022/12/03 00:04:31;;;;;;;14.03;6.90;;;2.70;99.90;;;;;;5012596;28;20180;-80
2022/12/03 00:06:57;;;;;;;11.83;6.87;;;2.70;99.90;;;;;;5010379;28;20633;-82
2022/12/03 00:09:22;;;;;;;11.17;6.00;;;2.60;99.90;;;;;;4997066;28;20186;-95
2022/12/03 00:11:48;;;;;;;11.53;6.47;;;2.70;99.90;;;;;;4994846;28;20258;-91
2022/12/03 00:14:13;;;;;;;11.43;6.90;;;2.70;99.90;;;;;;4994553;28;20211;-94
2022/12/03 00:16:38;;;;;;;14.30;8.50;;;2.60;99.90;;;;;;4994913;28;20219;-95
2022/12/03 00:19:06;;;;;;;15.30;7.53;;;2.60;99.90;;;;;;4977742;28;20188;-87
2022/12/03 00:21:32;;;;;;;10.07;7.13;;;2.70;99.90;;;;;;4994784;28;20617;-93
2022/12/03 00:23:57;;;;;;;12.73;6.80;;;2.60;99.90;;;;;;4994797;28;20477;-95
2022/12/03 00:26:23;;;;;;;11.60;6.70;;;2.60;99.90;;;;;;4994758;28;20267;-94
2022/12/03 00:28:48;;;;;;;12.47;6.67;;;2.60;99.90;;;;;;4994438;28;20227;-95
2022/12/03 00:31:14;;;;;;;16.23;6.90;;;2.50;99.90;;;;;;4994608;28;20646;-93
2022/12/03 00:33:39;;;;;;;17.17;8.43;;;2.50;99.90;;;;;;4993914;28;20223;-90
2022/12/03 00:36:05;;;;;;;10.63;6.07;;;2.40;99.90;;;;;;4994789;28;20186;-94
2022/12/03 00:38:30;;;;;;;11.50;6.30;;;2.40;99.90;;;;;;4977511;28;20623;-90
2022/12/03 00:40:56;;;;;;;12.13;7.73;;;2.40;99.90;;;;;;4994800;28;20474;-92
2022/12/03 00:43:21;;;;;;;13.93;7.93;;;2.40;99.90;;;;;;4994740;28;20175;-95
2022/12/03 00:45:47;;;;;;;15.17;7.50;;;2.30;99.90;;;;;;5001636;28;20650;-89
2022/12/03 00:48:12;;;;;;;13.50;7.30;;;2.30;99.90;;;;;;4984479;28;20182;-94
2022/12/03 00:50:38;;;;;;;10.97;6.50;;;2.30;99.90;;;;;;4984835;28;20181;-81
2022/12/03 00:53:03;;;;;;;16.43;6.10;;;2.30;99.90;;;;;;5011249;28;20216;-92
2022/12/03 00:55:29;;;;;;;14.00;6.67;;;2.30;99.90;;;;;;4993284;28;20173;-91
2022/12/03 00:57:54;;;;;;;13.57;7.10;;;2.30;99.90;;;;;;5012631;28;20178;-87
2022/12/03 01:00:23;;;;;;;12.13;6.97;;;2.30;99.90;;;;;;5007952;28;20168;-93
2022/12/03 01:02:50;;;;;;;13.73;8.90;;;2.20;99.90;;;;;;5008278;28;20171;-92
2022/12/03 01:05:16;;;;;;;14.83;7.07;;;2.30;99.90;;;;;;5002376;28;20420;-93
2022/12/03 01:07:41;;;;;;;18.03;7.93;;;2.30;99.90;;;;;;4988948;28;20471;-88
2022/12/03 01:10:07;;;;;;;13.30;6.30;;;2.30;99.90;;;;;;5001108;28;20187;-95
2022/12/03 01:12:33;;;;;;;14.10;8.37;;;2.30;99.90;;;;;;5007075;28;20242;-92
2022/12/03 01:14:58;;;;;;;12.77;6.83;;;2.30;99.90;;;;;;5014440;28;20180;-87
2022/12/03 01:17:24;;;;;;;11.47;5.60;;;2.30;99.90;;;;;;5015209;28;20204;-89
2022/12/03 01:19:51;;;;;;;14.77;8.47;;;2.30;99.90;;;;;;4990576;28;20240;-93
2022/12/03 01:22:17;;;;;;;18.03;8.40;;;2.30;99.90;;;;;;5010912;28;20167;-96
2022/12/03 01:24:42;;;;;;;14.63;7.03;;;2.30;99.90;;;;;;5005606;28;20407;-93
2022/12/03 01:27:07;;;;;;;14.30;8.33;;;2.20;99.90;;;;;;4981955;28;20176;-81
2022/12/03 01:29:33;;;;;;;15.67;7.30;;;2.10;99.90;;;;;;5002522;28;20184;-91
2022/12/03 01:32:18;;;;;;;14.33;7.63;;;2.10;99.90;;;;;;5006485;28;20186;-81
2022/12/03 01:34:48;;;;;;;17.70;8.53;;;2.10;99.90;;;;;;5025669;28;20207;-89
2022/12/03 01:37:14;;;;;;;16.30;8.13;;;2.10;99.90;;;;;;5020362;28;20565;-92
2022/12/03 01:39:43;;;;;;;14.87;8.53;;;2.10;99.90;;;;;;5024086;28;20474;-95
2022/12/03 01:42:14;;;;;;;18.33;9.47;;;2.00;99.90;;;;;;5027701;28;20270;-92
2022/12/03 01:44:39;;;;;;;15.57;8.57;;;2.00;99.90;;;;;;5033280;28;20413;-92
2022/12/03 01:47:09;;;;;;;17.53;9.77;;;2.00;99.90;;;;;;5038197;28;20512;-89
2022/12/03 01:49:53;;;;;;;16.53;9.27;;;1.90;99.90;;;;;;5037725;28;20415;-96
2022/12/03 01:52:25;;;;;;;11.07;4.93;;;1.80;99.90;;;;;;5012562;28;20449;-82
2022/12/03 01:54:54;;;;;;;15.60;9.73;;;1.80;99.90;;;;;;5008496;28;20441;-84
2022/12/03 01:57:30;;;;;;;18.27;8.97;;;1.70;99.90;;;;;;5027489;28;20566;-82
2022/12/03 01:59:59;;;;;;;14.03;8.43;;;1.70;99.90;;;;;;5030914;28;20418;-91
2022/12/03 02:02:30;;;;;;;16.67;7.53;;;1.80;99.90;;;;;;5012084;28;20422;-82
2022/12/03 02:04:57;;;;;;;15.87;8.00;;;1.80;99.90;;;;;;5016381;28;20435;-81
2022/12/03 02:07:29;;;;;;;18.00;9.57;;;1.80;99.90;;;;;;5021873;23;20486;-81
2022/12/03 02:09:56;;;;;;;15.13;8.80;;;1.70;99.90;;;;;;5014169;28;20423;-82
2022/12/03 02:12:39;;;;;;;18.70;10.43;;;1.70;99.90;;;;;;5005444;23;20490;-86
2022/12/03 02:15:06;;;;;;;17.17;8.80;;;1.60;99.90;;;;;;4994280;28;20430;-90
2022/12/03 02:17:32;;;;;;;22.53;10.47;;;1.60;99.90;;;;;;5016356;28;20407;-86
2022/12/03 02:20:00;;;;;;;22.40;10.97;;;1.60;99.90;;;;;;5015218;28;20453;-86
2022/12/03 02:22:30;;;;;;;20.33;10.53;;;1.60;99.90;;;;;;5007185;28;20435;-84
2022/12/03 02:25:10;;;;;;;19.90;11.13;;;1.60;99.90;;;;;;5004163;28;20813;-90
2022/12/03 02:27:35;;;;;;;18.87;9.30;;;1.50;99.90;;;;;;4979618;28;20845;-86
2022/12/03 02:30:01;;;;;;;21.43;10.27;;;1.50;99.90;;;;;;4996395;28;20419;-92
2022/12/03 02:32:26;;;;;;;20.43;9.63;;;1.60;99.90;;;;;;4998249;28;20279;-88
2022/12/03 02:34:52;;;;;;;18.50;10.77;;;1.60;99.90;;;;;;5001448;28;20652;-90
2022/12/03 02:37:28;;;;;;;19.07;10.23;;;1.60;99.90;;;;;;5000289;28;20168;-92
2022/12/03 02:39:56;;;;;;;17.83;8.47;;;1.50;99.90;;;;;;5000315;28;20173;-84
2022/12/03 02:42:34;;;;;;;20.37;11.97;;;1.50;99.90;;;;;;5002587;28;20419;-85
2022/12/03 02:45:02;;;;;;;28.73;11.80;;;1.50;99.90;;;;;;4999002;28;20425;-89
2022/12/03 02:47:29;;;;;;;19.13;9.67;;;1.50;99.90;;;;;;4982122;28;20458;-91
2022/12/03 02:49:56;;;;;;;20.93;9.73;;;1.40;99.90;;;;;;4999888;28;20420;-93
2022/12/03 02:52:22;;;;;;;17.13;9.57;;;1.40;99.90;;;;;;4984830;28;20442;-93
2022/12/03 02:54:48;;;;;;;21.70;9.00;;;1.40;99.90;;;;;;4984652;28;20470;-88
2022/12/03 02:57:15;;;;;;;19.80;10.13;;;1.40;99.90;;;;;;5010403;28;20625;-83
2022/12/03 02:59:41;;;;;;;21.20;9.70;;;1.40;99.90;;;;;;5015946;28;20431;-82
2022/12/03 03:02:07;;;;;;;20.00;8.57;;;1.40;99.90;;;;;;5016622;28;20440;-85
2022/12/03 03:04:33;;;;;;;19.23;9.37;;;1.30;99.90;;;;;;5016652;28;20460;-94
2022/12/03 03:06:58;;;;;;;22.87;10.10;;;1.30;99.90;;;;;;5002377;28;20480;-91
2022/12/03 03:09:24;;;;;;;22.60;13.07;;;1.30;99.90;;;;;;5001362;28;20419;-83
2022/12/03 03:11:50;;;;;;;19.50;9.40;;;1.30;99.90;;;;;;5000778;28;20257;-92
2022/12/03 03:14:15;;;;;;;17.43;9.03;;;1.30;99.90;;;;;;4997298;28;20990;-90
2022/12/03 03:16:41;;;;;;;20.67;9.70;;;1.30;99.90;;;;;;4998967;28;20167;-94
2022/12/03 03:19:06;;;;;;;23.80;12.30;;;1.20;99.90;;;;;;4997801;28;20182;-92
2022/12/03 03:21:32;;;;;;;21.17;9.27;;;1.30;99.90;;;;;;4997758;28;20177;-93
2022/12/03 03:23:58;;;;;;;26.53;11.93;;;1.20;99.90;;;;;;4997546;28;20180;-94
2022/12/03 03:26:23;;;;;;;21.20;11.13;;;1.20;99.90;;;;;;4981018;28;20930;-92
2022/12/03 03:28:50;;;;;;;20.73;11.40;;;1.20;99.90;;;;;;4998647;28;20232;-89
2022/12/03 03:31:20;;;;;;;27.60;12.20;;;1.20;99.90;;;;;;4998762;28;20191;-93
2022/12/03 03:33:48;;;;;;;26.30;11.90;;;1.10;99.90;;;;;;5005744;28;20473;-95
2022/12/03 03:36:14;;;;;;;19.77;10.90;;;1.10;99.90;;;;;;4989296;28;20420;-94
2022/12/03 03:38:40;;;;;;;23.97;10.50;;;1.20;99.90;;;;;;5003649;28;20429;-94
2022/12/03 03:41:06;;;;;;;24.23;11.27;;;1.10;99.90;;;;;;4999795;28;20483;-93
2022/12/03 03:43:34;;;;;;;23.47;11.60;;;1.00;99.90;;;;;;4998822;28;20168;-93
2022/12/03 03:46:02;;;;;;;19.03;11.30;;;1.00;99.90;;;;;;5000251;28;20409;-93
2022/12/03 03:48:28;;;;;;;23.00;10.20;;;1.00;99.90;;;;;;4998311;28;20425;-92
2022/12/03 03:50:54;;;;;;;19.70;11.83;;;1.00;99.90;;;;;;4980853;28;20423;-91
2022/12/03 03:53:21;;;;;;;19.50;8.70;;;1.00;99.90;;;;;;4998063;28;20248;-91
2022/12/03 03:55:48;;;;;;;23.53;11.80;;;0.90;99.90;;;;;;5004467;28;20426;-90
2022/12/03 03:58:13;;;;;;;18.63;10.13;;;1.00;99.90;;;;;;5000647;28;20896;-92
2022/12/03 04:00:40;;;;;;;22.87;10.87;;;0.90;99.90;;;;;;5002923;28;20454;-90
2022/12/03 04:03:06;;;;;;;24.70;11.87;;;1.00;99.90;;;;;;4999653;28;20206;-94
2022/12/03 04:05:32;;;;;;;27.47;12.80;;;1.00;99.90;;;;;;4995573;28;20927;-92
2022/12/03 04:07:58;;;;;;;22.47;12.10;;;0.90;99.90;;;;;;4995293;28;20166;-93
2022/12/03 04:13:07;;;;;;;19.67;10.10;;;0.90;99.90;;;;;;4996167;28;20206;-95
2022/12/03 04:15:33;;;;;;;20.87;9.03;;;0.90;99.90;;;;;;4996786;28;20412;-87
2022/12/03 04:20:43;;;;;;;20.23;10.30;;;0.90;99.90;;;;;;4995891;28;20188;-94
2022/12/03 04:23:08;;;;;;;30.27;13.23;;;0.80;99.90;;;;;;4995903;28;20511;-93
2022/12/03 04:35:41;;;;;;;17.73;11.20;;;0.80;99.90;;;;;;4996314;28;20762;-93
2022/12/03 04:36:37;;;;;;;26.70;12.07;;;0.80;99.90;;;;;;4998593;28;20410;-96
2022/12/03 04:39:07;;;;;;;31.90;14.63;;;0.80;99.90;;;;;;5002988;28;20419;-80
2022/12/03 04:41:33;;;;;;;22.87;10.90;;;0.80;99.90;;;;;;5024925;23;20494;-80
2022/12/03 04:46:42;;;;;;;22.70;11.07;;;0.70;99.90;;;;;;5017787;28;20143;-84
2022/12/03 04:49:08;;;;;;;20.83;10.53;;;0.70;99.90;;;;;;5017231;28;20447;-81
2022/12/03 04:51:33;;;;;;;22.57;10.87;;;0.80;99.90;;;;;;5016751;28;20178;-86
2022/12/03 04:53:59;;;;;;;20.17;11.80;;;0.70;99.90;;;;;;5014505;28;20191;-80
2022/12/03 04:56:24;;;;;;;24.90;12.13;;;0.70;99.90;;;;;;5017074;28;20180;-83
2022/12/03 04:58:50;;;;;;;22.87;12.33;;;0.70;99.90;;;;;;5018456;28;20187;-81
2022/12/03 05:01:18;;;;;;;32.23;14.20;;;0.70;99.90;;;;;;5017921;28;20542;-81
2022/12/03 05:03:43;;;;;;;23.33;11.10;;;0.70;99.90;;;;;;5012762;28;20173;-92
2022/12/03 05:06:09;;;;;;;25.03;11.77;;;0.70;99.90;;;;;;4995344;28;20419;-92
2022/12/03 05:08:35;;;;;;;19.73;10.10;;;0.70;99.90;;;;;;5011856;28;20197;-95
2022/12/03 05:11:00;;;;;;;22.77;11.50;;;0.60;99.90;;;;;;4996001;28;20176;-95
2022/12/03 05:13:26;;;;;;;21.77;11.67;;;0.60;99.90;;;;;;4999480;28;20212;-94
2022/12/03 05:15:51;;;;;;;25.63;12.70;;;0.60;99.90;;;;;;4996462;28;20168;-95
2022/12/03 05:18:16;;;;;;;21.73;10.40;;;0.60;99.90;;;;;;4996686;28;20172;-90
2022/12/03 05:20:42;;;;;;;23.90;11.50;;;0.60;99.90;;;;;;5002967;28;20234;-95
2022/12/03 05:23:09;;;;;;;24.50;12.67;;;0.50;99.90;;;;;;5001943;28;20636;-91
2022/12/03 05:25:34;;;;;;;24.83;13.17;;;0.50;99.90;;;;;;5005614;28;20174;-96
2022/12/03 05:28:00;;;;;;;24.10;11.40;;;0.50;99.90;;;;;;5004194;28;20424;-95
2022/12/03 05:30:25;;;;;;;23.33;10.83;;;0.40;99.90;;;;;;4999335;28;20176;-95
2022/12/03 05:32:51;;;;;;;26.63;11.87;;;0.40;99.90;;;;;;4999575;28;20183;-95
2022/12/03 05:35:16;;;;;;;21.30;11.40;;;0.40;99.90;;;;;;5000018;28;20217;-95
2022/12/03 05:37:42;;;;;;;23.70;11.90;;;0.50;99.90;;;;;;4982428;28;20218;-82
2022/12/03 05:40:08;;;;;;;22.40;11.07;;;0.40;99.90;;;;;;4999090;28;20187;-85
2022/12/03 05:42:52;;;;;;;30.63;13.17;;;0.40;99.90;;;;;;4997145;28;20165;-82
2022/12/03 05:45:31;;;;;;;22.50;10.90;;;0.40;99.90;;;;;;4997299;28;20519;-81
2022/12/03 05:47:58;;;;;;;20.47;11.40;;;0.40;99.90;;;;;;5003833;28;20445;-81
2022/12/03 05:50:26;;;;;;;20.80;11.73;;;0.40;99.90;;;;;;4984019;28;20439;-82
2022/12/03 05:52:52;;;;;;;22.97;12.70;;;0.40;99.90;;;;;;4996283;28;20892;-81
2022/12/03 05:55:18;;;;;;;23.30;10.73;;;0.40;99.90;;;;;;5002557;28;20430;-84
2022/12/03 05:57:44;;;;;;;22.07;11.23;;;0.30;99.90;;;;;;4996669;28;20174;-80
2022/12/03 06:00:19;;;;;;;28.70;13.77;;;0.30;99.90;;;;;;4996456;28;20418;-81
2022/12/03 06:02:45;;;;;;;22.10;11.50;;;0.30;99.90;;;;;;4997796;28;20424;-79
2022/12/03 06:05:12;;;;;;;21.53;11.47;;;0.30;99.90;;;;;;4986936;28;20425;-79
2022/12/03 06:07:38;;;;;;;24.50;12.67;;;0.40;99.90;;;;;;5007928;28;20191;-82
2022/12/03 06:10:05;;;;;;;23.03;11.10;;;0.40;99.90;;;;;;5008244;28;20518;-80
2022/12/03 06:12:30;;;;;;;25.17;12.67;;;0.40;99.90;;;;;;4997991;28;20428;-80
2022/12/03 06:14:56;;;;;;;26.03;12.00;;;0.50;99.90;;;;;;4999335;28;20527;-80
2022/12/03 06:17:21;;;;;;;22.67;11.20;;;0.50;99.90;;;;;;4980687;28;20280;-80
2022/12/03 06:19:46;;;;;;;24.47;11.47;;;0.60;99.90;;;;;;5000256;28;20264;-84
2022/12/03 06:22:12;;;;;;;27.83;13.43;;;0.60;99.90;;;;;;4993752;28;20255;-84
2022/12/03 06:24:38;;;;;;;24.60;9.80;;;0.60;99.90;;;;;;5009067;28;20168;-81
2022/12/03 06:27:03;;;;;;;18.13;10.43;;;0.50;99.90;;;;;;5007544;28;20171;-81
2022/12/03 06:29:29;;;;;;;18.33;11.40;;;0.50;99.90;;;;;;4999384;28;20261;-80
2022/12/03 06:31:55;;;;;;;13.60;8.00;;;0.50;99.90;;;;;;5014719;23;20238;-81
2022/12/03 06:34:20;;;;;;;17.53;10.20;;;0.50;99.90;;;;;;5006274;28;20218;-82
2022/12/03 06:36:46;;;;;;;22.37;11.50;;;0.50;99.90;;;;;;4981835;28;20178;-82
2022/12/03 06:39:18;;;;;;;21.37;9.47;;;0.50;99.90;;;;;;4980352;28;20212;-82
2022/12/03 06:41:46;;;;;;;18.47;10.77;;;0.50;99.90;;;;;;4983693;28;20178;-87
2022/12/03 06:44:12;;;;;;;17.77;10.57;;;0.50;99.90;;;;;;4980559;28;20438;-82
2022/12/03 06:46:37;;;;;;;16.17;8.70;;;0.40;99.90;;;;;;4979444;28;20435;-83
2022/12/03 06:49:03;;;;;;;22.60;11.03;;;0.40;99.90;;;;;;4981731;28;20263;-94
2022/12/03 06:51:29;;;;;;;18.67;10.73;;;0.40;99.90;;;;;;5000169;28;20186;-83
2022/12/03 06:53:54;;;;;;;23.40;9.97;;;0.40;99.90;;;;;;4997478;28;20265;-83
2022/12/03 06:56:20;;;;;;;20.23;10.37;;;0.30;99.90;;;;;;4997072;28;20178;-82
2022/12/03 06:58:45;;;;;;;24.77;12.07;;;0.40;99.90;;;;;;4997328;28;20197;-83
2022/12/03 07:01:11;;;;;;;19.17;10.27;;;0.40;99.90;;;;;;4998300;28;20174;-83
2022/12/03 07:03:40;;;;;;;20.50;11.20;;;0.30;99.90;;;;;;4997550;28;20192;-84
2022/12/03 07:06:05;;;;;;;22.67;10.80;;;0.30;99.90;;;;;;4997380;28;20170;-86
2022/12/03 07:08:31;;;;;;;22.33;11.07;;;0.30;99.90;;;;;;4997716;28;20427;-84
2022/12/03 07:10:57;;;;;;;16.23;8.87;;;0.30;99.90;;;;;;5001854;28;20638;-83
2022/12/03 07:13:22;;;;;;;26.70;11.77;;;0.30;99.90;;;;;;4996761;28;20229;-84
2022/12/03 07:15:48;;;;;;;23.57;11.03;;;0.30;99.90;;;;;;4997550;28;20643;-82
2022/12/03 07:18:13;;;;;;;20.63;10.43;;;0.30;99.90;;;;;;5002407;28;20647;-81
2022/12/03 07:20:39;;;;;;;27.47;13.60;;;0.30;99.90;;;;;;5001715;28;20580;-84
2022/12/03 07:23:07;;;;;;;26.70;13.00;;;0.20;99.90;;;;;;4996602;28;20191;-86
2022/12/03 07:25:32;;;;;;;23.43;11.23;;;0.20;99.90;;;;;;4997212;28;20597;-85
2022/12/03 07:27:58;;;;;;;23.07;13.03;;;0.30;99.90;;;;;;4995760;28;20420;-84
2022/12/03 07:30:24;;;;;;;19.97;11.40;;;0.30;99.90;;;;;;4995667;28;20174;-83
2022/12/03 07:32:50;;;;;;;17.00;10.07;;;0.40;99.90;;;;;;4996466;28;20549;-85
2022/12/03 07:35:16;;;;;;;18.37;9.47;;;0.30;99.90;;;;;;4997060;28;20579;-84
2022/12/03 07:37:41;;;;;;;23.30;12.00;;;0.40;99.90;;;;;;4999228;28;20196;-94
2022/12/03 07:40:10;;;;;;;20.60;10.43;;;0.40;99.90;;;;;;5005404;28;20438;-83
2022/12/03 07:42:36;;;;;;;21.97;10.47;;;0.50;99.90;;;;;;5006937;28;20236;-90
2022/12/03 07:45:02;;;;;;;21.50;9.93;;;0.50;99.90;;;;;;5001321;28;20824;-91
2022/12/03 07:47:27;;;;;;;24.90;11.10;;;0.40;99.90;;;;;;4983717;28;20656;-82
2022/12/03 07:49:53;;;;;;;20.43;11.80;;;0.50;99.90;;;;;;4999024;28;20179;-83
2022/12/03 07:52:18;;;;;;;18.13;9.87;;;0.50;99.90;;;;;;5000718;28;20187;-90
2022/12/03 07:54:44;;;;;;;22.53;11.30;;;0.60;99.90;;;;;;5004318;28;20649;-89
2022/12/03 07:57:10;;;;;;;19.40;9.77;;;0.70;99.90;;;;;;5006937;28;20706;-91
2022/12/03 07:59:35;;;;;;;26.37;12.53;;;0.80;99.90;;;;;;5018172;28;20462;-85
2022/12/03 08:02:01;;;;;;;15.07;8.50;;;0.70;99.90;;;;;;5005599;28;20197;-95
2022/12/03 08:04:27;;;;;;;22.07;10.70;;;0.70;99.90;;;;;;4996435;28;20176;-90
2022/12/03 08:06:53;;;;;;;20.30;11.33;;;0.80;99.90;;;;;;4978259;28;20548;-89
2022/12/03 08:09:18;;;;;;;23.87;10.00;;;0.90;99.90;;;;;;4995670;28;20419;-91
2022/12/03 08:11:47;;;;;;;24.33;11.13;;;0.90;99.90;;;;;;4996876;28;20180;-92
2022/12/03 08:14:15;;;;;;;21.83;10.10;;;0.90;99.90;;;;;;4978133;28;20215;-89
2022/12/03 08:16:42;;;;;;;23.07;11.27;;;1.00;99.90;;;;;;4992321;28;20427;-85
2022/12/03 08:19:12;;;;;;;19.63;12.67;;;1.00;99.90;;;;;;4996061;28;20943;-83
2022/12/03 08:21:38;;;;;;;24.47;11.70;;;1.10;99.90;;;;;;5015920;28;20418;-83
2022/12/03 08:24:19;;;;;;;17.97;9.67;;;1.10;99.90;;;;;;5027730;28;20819;-86
2022/12/03 08:26:50;;;;;;;19.53;9.70;;;1.20;99.90;;;;;;5029197;28;20420;-84
2022/12/03 08:29:18;;;;;;;23.70;11.20;;;1.20;99.90;;;;;;5028914;28;20428;-84
2022/12/03 08:31:48;;;;;;;21.20;11.43;;;1.30;99.90;;;;;;5021710;28;20535;-83
2022/12/03 08:34:19;;;;;;;18.73;10.67;;;1.40;99.90;;;;;;4996102;28;20525;-83
2022/12/03 08:36:48;;;;;;;24.43;11.77;;;1.50;99.90;;;;;;5014014;28;20414;-84
2022/12/03 08:39:39;;;;;;;15.77;9.57;;;1.60;99.90;;;;;;5014031;28;20424;-84
2022/12/03 08:42:40;;;;;;;22.43;9.77;;;1.60;28.80;;;;;;5013270;28;20411;-86
2022/12/03 08:45:27;;;;;;;21.00;11.80;;;1.60;5.70;;;;;;5013293;28;20484;-83
2022/12/03 08:48:17;;;;;;;20.77;10.83;;;1.80;45.40;;;;;;5013422;28;20949;-83
2022/12/03 08:50:44;;;;;;;16.87;7.57;;;1.60;1.00;;;;;;5013636;28;20773;-85
2022/12/03 08:53:12;;;;;;;24.07;11.83;;;1.60;4.70;;;;;;5012949;28;20457;-89
2022/12/03 08:55:43;;;;;;;19.93;12.30;;;1.60;17.00;;;;;;5013184;28;21002;-84
2022/12/03 08:58:26;;;;;;;21.97;11.63;;;1.60;29.80;;;;;;5013414;28;20733;-82
2022/12/03 09:01:02;;;;;;;19.33;11.20;;;1.50;32.20;;;;;;5013408;28;20474;-84
2022/12/03 09:03:29;;;;;;;20.03;12.20;;;1.50;86.00;;;;;;5013569;28;20484;-86
2022/12/03 09:05:55;;;;;;;21.00;11.13;;;1.50;89.30;;;;;;5013244;28;20548;-84
2022/12/03 09:08:20;;;;;;;22.13;11.00;;;1.60;56.00;;;;;;5013430;28;20418;-86
2022/12/03 09:10:46;;;;;;;18.23;9.93;;;1.60;1.00;;;;;;5013260;28;20177;-84
2022/12/03 09:13:11;;;;;;;25.70;12.87;;;1.60;1.00;;;;;;5012753;28;20280;-88
2022/12/03 09:15:37;;;;;;;18.80;11.33;;;1.60;1.00;;;;;;5013193;28;20191;-84
2022/12/03 09:18:02;;;;;;;21.43;10.47;;;1.70;1.00;;;;;;5013289;28;20179;-83
2022/12/03 09:20:28;;;;;;;20.07;10.50;;;1.70;1.00;;;;;;5014398;28;20186;-85
2022/12/03 09:22:53;;;;;;;20.33;10.07;;;2.00;1.00;;;;;;5016414;28;20182;-87
2022/12/03 09:25:19;;;;;;;20.37;10.23;;;2.20;1.00;;;;;;5020271;28;20653;-95
2022/12/03 09:27:44;;;;;;;19.20;10.40;;;2.20;1.00;;;;;;5024649;28;20231;-96
2022/12/03 09:30:11;;;;;;;22.83;11.80;;;2.20;1.00;;;;;;5018337;28;20520;-91
2022/12/03 09:32:37;;;;;;;21.73;11.10;;;2.10;1.00;;;;;;5017953;28;20226;-87
2022/12/03 09:35:03;;;;;;;24.47;10.93;;;2.10;1.00;;;;;;5016591;28;20471;-83
2022/12/03 09:37:29;;;;;;;20.43;11.37;;;2.20;1.00;;;;;;5015255;28;20172;-84
2022/12/03 09:39:54;;;;;;;17.00;10.20;;;2.20;1.00;;;;;;5015983;28;21029;-82
2022/12/03 09:42:20;;;;;;;28.20;12.70;;;2.10;1.00;;;;;;5015551;28;20175;-84
2022/12/03 09:44:45;;;;;;;21.93;9.37;;;1.90;1.00;;;;;;5000494;28;20193;-84
2022/12/03 09:47:12;;;;;;;20.33;10.60;;;2.10;1.00;;;;;;4993404;28;20188;-83
2022/12/03 09:49:38;;;;;;;20.83;12.00;;;2.10;1.00;;;;;;4997442;28;20180;-91
2022/12/03 09:52:05;;;;;;;20.00;10.93;;;2.10;1.00;;;;;;4998563;28;20414;-89
2022/12/03 09:54:32;;;;;;;33.17;12.40;;;2.10;1.00;;;;;;4981117;28;20486;-83
2022/12/03 09:57:01;;;;;;;23.07;11.30;;;2.20;1.00;;;;;;4996624;28;20412;-90
2022/12/03 09:59:30;;;;;;;17.83;8.97;;;2.40;1.00;;;;;;5001937;28;20423;-85
2022/12/03 10:01:56;;;;;;;25.67;11.10;;;2.60;99.90;;;;;;4995915;28;20411;-84
2022/12/03 10:04:22;;;;;;;22.00;10.90;;;2.60;1.00;;;;;;4999851;28;20853;-84
2022/12/03 10:06:48;;;;;;;19.77;10.33;;;2.50;1.00;;;;;;5005368;28;20411;-82
2022/12/03 10:09:21;;;;;;;21.37;11.53;;;2.40;1.00;;;;;;5003823;28;20411;-91
2022/12/03 10:11:46;;;;;;;20.93;10.97;;;2.30;1.00;;;;;;5005505;28;20668;-86
2022/12/03 10:14:13;;;;;;;25.00;12.37;;;2.30;1.00;;;;;;5003802;28;20556;-90
2022/12/03 10:16:42;;;;;;;17.67;10.50;;;2.20;1.00;;;;;;5006077;28;20172;-88
2022/12/03 10:19:15;;;;;;;16.57;9.63;;;2.20;1.00;;;;;;5008521;28;20429;-94
2022/12/03 10:21:40;;;;;;;21.90;11.47;;;2.20;1.00;;;;;;5010584;28;20426;-89
2022/12/03 10:24:30;;;;;;;17.87;9.23;;;2.30;1.00;;;;;;5007059;28;20438;-86
2022/12/03 10:27:20;;;;;;;20.60;10.77;;;2.40;1.00;;;;;;4988523;28;20183;-88
2022/12/03 10:29:55;;;;;;;23.87;11.00;;;2.40;1.00;;;;;;4992599;28;20489;-96
2022/12/03 10:32:40;;;;;;;20.17;10.17;;;2.50;1.00;;;;;;5003431;28;20462;-94
2022/12/03 10:35:12;;;;;;;19.67;9.17;;;2.60;1.00;;;;;;5010015;28;21041;-89
2022/12/03 10:38:05;;;;;;;17.77;8.90;;;2.70;1.00;;;;;;4999738;28;20428;-93
2022/12/03 10:40:36;;;;;;;16.80;7.97;;;3.00;1.00;;;;;;4999045;28;20428;-90
2022/12/03 10:43:15;;;;;;;25.23;10.57;;;3.00;1.00;;;;;;4999292;28;20429;-92
2022/12/03 10:45:41;;;;;;;22.20;10.37;;;3.20;1.00;;;;;;4999230;28;20430;-96
2022/12/03 10:48:25;;;;;;;18.73;10.03;;;3.30;74.70;;;;;;5016738;28;20914;-91
2022/12/03 10:51:12;;;;;;;12.23;8.40;;;3.10;47.20;;;;;;4998859;28;20440;-90
2022/12/03 10:53:39;;;;;;;16.77;9.60;;;2.90;99.90;;;;;;5018130;28;20469;-95
2022/12/03 10:56:10;;;;;;;21.47;11.03;;;3.10;99.90;;;;;;5017936;28;20417;-96
2022/12/03 10:58:38;;;;;;;14.90;8.43;;;3.30;99.90;;;;;;4999554;28;20436;-95
2022/12/03 11:01:14;;;;;;;23.10;10.53;;;3.40;99.90;;;;;;5017400;28;21031;-89
2022/12/03 11:03:40;;;;;;;16.57;8.77;;;3.40;99.90;;;;;;5018841;28;20422;-94
2022/12/03 11:06:21;;;;;;;22.40;10.07;;;3.50;1.00;;;;;;4985618;28;20808;-85
2022/12/03 11:08:50;;;;;;;17.87;9.60;;;3.20;99.90;;;;;;5019923;28;20429;-85
2022/12/03 11:11:25;;;;;;;16.43;8.70;;;3.30;99.90;;;;;;5024648;28;20435;-91
2022/12/03 11:13:56;;;;;;;17.50;8.60;;;3.30;99.90;;;;;;5029425;28;20476;-89
2022/12/03 11:16:40;;;;;;;18.37;10.07;;;3.10;1.00;;;;;;5026617;28;20416;-91
2022/12/03 11:19:34;;;;;;;17.20;9.87;;;3.20;1.00;;;;;;5029064;28;20429;-91
2022/12/03 11:22:09;;;;;;;17.40;9.60;;;3.10;1.00;;;;;;5011376;28;20426;-91
2022/12/03 11:24:36;;;;;;;17.00;8.50;;;3.10;99.90;;;;;;5018490;28;20410;-87
2022/12/03 11:27:02;;;;;;;23.20;11.90;;;3.20;99.90;;;;;;5016765;28;20422;-93
2022/12/03 11:29:55;;;;;;;21.43;10.10;;;3.30;1.00;;;;;;5018097;28;20418;-89
2022/12/03 11:32:43;;;;;;;19.03;10.53;;;3.10;1.00;;;;;;5019740;28;20255;-91
2022/12/03 11:35:14;;;;;;;16.27;9.20;;;3.20;99.90;;;;;;5023054;28;20501;-94
2022/12/03 11:37:43;;;;;;;20.70;9.67;;;3.30;99.90;;;;;;5027525;28;20418;-90
2022/12/03 11:40:17;;;;;;;20.13;9.40;;;3.70;99.90;;;;;;5019371;28;20408;-92
2022/12/03 11:42:45;;;;;;;18.40;9.83;;;4.40;99.90;;;;;;4999035;28;20478;-91
2022/12/03 11:45:38;;;;;;;18.93;10.07;;;3.40;93.70;;;;;;5013782;28;20517;-88
2022/12/03 11:48:13;;;;;;;16.83;8.40;;;3.00;56.80;;;;;;4996839;28;20983;-88
2022/12/03 11:50:48;;;;;;;20.63;9.20;;;3.70;1.00;;;;;;5014705;28;20505;-92
2022/12/03 11:53:25;;;;;;;20.77;9.80;;;3.10;1.00;;;;;;4998699;28;20493;-92
2022/12/03 11:56:07;;;;;;;16.67;10.33;;;2.90;99.90;;;;;;4998558;28;20817;-94
2022/12/03 11:58:34;;;;;;;15.40;8.10;;;2.70;1.00;;;;;;4997840;28;20412;-83
2022/12/03 12:01:02;;;;;;;14.17;8.00;;;2.80;99.90;;;;;;4997373;28;20426;-93
2022/12/03 12:03:45;;;;;;;19.17;10.57;;;2.80;1.00;;;;;;5016084;28;20413;-92
2022/12/03 12:06:20;;;;;;;19.20;8.53;;;2.70;99.90;;;;;;5015864;28;20499;-93
2022/12/03 12:08:51;;;;;;;15.47;7.23;;;2.80;99.90;;;;;;4999279;28;20430;-92
2022/12/03 12:11:24;;;;;;;16.97;7.67;;;2.80;99.90;;;;;;5015096;28;20464;-87
2022/12/03 12:13:53;;;;;;;18.87;9.90;;;2.70;99.90;;;;;;4995753;28;20970;-92
2022/12/03 12:16:39;;;;;;;11.40;7.10;;;2.70;99.90;;;;;;4995781;28;21052;-90
2022/12/03 12:19:41;;;;;;;20.40;9.10;;;2.60;99.90;;;;;;4996377;28;20469;-92
2022/12/03 12:22:28;;;;;;;12.30;6.83;;;2.60;1.00;;;;;;4995308;28;20419;-92
2022/12/03 12:24:55;;;;;;;21.60;8.60;;;2.50;71.60;;;;;;4977634;28;20951;-84
2022/12/03 12:27:27;;;;;;;15.20;8.30;;;2.60;1.00;;;;;;4994191;28;20430;-89
2022/12/03 12:30:00;;;;;;;18.13;8.10;;;2.70;99.90;;;;;;4994912;28;20422;-91
2022/12/03 12:32:27;;;;;;;17.27;8.30;;;2.70;99.90;;;;;;4995051;28;20454;-93
2022/12/03 12:35:01;;;;;;;16.67;7.63;;;2.60;99.90;;;;;;4994476;28;20470;-91
2022/12/03 12:37:42;;;;;;;14.00;6.70;;;2.50;99.90;;;;;;4995190;28;20413;-89
2022/12/03 12:40:14;;;;;;;12.50;6.73;;;2.60;99.90;;;;;;4994989;28;20809;-90
2022/12/03 12:42:53;;;;;;;12.17;7.60;;;2.50;1.00;;;;;;4994449;28;20462;-93
2022/12/03 12:45:21;;;;;;;18.57;9.10;;;2.60;99.90;;;;;;4994778;28;20837;-85
2022/12/03 12:48:08;;;;;;;11.90;6.97;;;2.60;1.00;;;;;;4977537;28;20971;-87
2022/12/03 12:50:35;;;;;;;14.17;6.93;;;2.60;1.00;;;;;;4994815;28;20423;-94
2022/12/03 12:53:10;;;;;;;12.83;7.30;;;2.60;1.00;;;;;;4995036;28;20481;-94
2022/12/03 12:55:37;;;;;;;14.10;7.03;;;2.70;1.00;;;;;;4977324;28;20832;-91
2022/12/03 12:58:10;;;;;;;14.83;8.23;;;2.70;1.00;;;;;;4994457;28;20767;-94
2022/12/03 13:00:36;;;;;;;16.40;6.90;;;2.60;99.90;;;;;;4994888;28;20412;-91
2022/12/03 13:03:04;;;;;;;18.40;7.13;;;2.60;1.00;;;;;;4994592;28;20522;-92
2022/12/03 13:05:39;;;;;;;18.80;7.83;;;2.60;1.00;;;;;;4994457;28;20211;-82
2022/12/03 13:08:27;;;;;;;13.80;7.50;;;2.60;1.00;;;;;;4994460;28;20403;-93
2022/12/03 13:10:55;;;;;;;14.13;6.73;;;2.40;99.90;;;;;;4994302;28;20493;-90